• Join FlightAware (Why Join?)
  • Login
  • US Flag 
10:40PM EDT


 

Airport Tracker/Info


-or-


 

Live Flight TrackerFlight Track Log ✈ UAL1259 ✈ 15-Apr-2013 ✈ KLAX - KSFO

Flight Track Log - Related Links

Times and Time Zones

All times are in EDT time to prevent confusion due to time zone crossing. See the UAL1259 flight status page for this flight to view local times or setup timezone preferences in your user account.

Time Position Orientation Groundspeed Altitude Reporting Facility
EDT Latitude Longitude Course Direction KTS MPH feet Rate Location/Type
10:17PM 33.9340 -118.4430 264° West 190 219 1,700  Level FlightAware
10:18PM 33.9310 -118.4780 264° West 226 260 2,600 2,100 Climbing FlightAware
10:18PM 33.9290 -118.5160 266° West 253 291 3,800 2,940 Climbing FlightAware
10:18PM 33.9260 -118.5610 265° West 272 313 5,300 3,900 Climbing FlightAware
10:19PM 33.9210 -118.6030 262° West 257 296 7,400 4,020 Climbing FlightAware
10:19PM 33.9160 -118.6350 259° West 250 288 9,000 3,240 Climbing FlightAware
10:20PM 33.9050 -118.7100 260° West 281 323 11,200 1,920 Climbing FlightAware
10:21PM 33.8960 -118.7770 261° West 331 381 11,800 1,680 Climbing FlightAware
10:21PM 33.8870 -118.8530 262° West 345 397 13,500 2,520 Climbing FlightAware
10:22PM 33.9020 -118.9120 287° West 356 410 14,800 2,220 Climbing FlightAware
10:23PM 33.9530 -118.9750 314° West 376 433 16,300 2,280 Climbing FlightAware
10:24PM 34.0180 -119.0650 311° West 381 438 18,600 2,280 Climbing FlightAware
10:24PM 34.0620 -119.1270 311° West 382 440 20,000 1,920 Climbing FlightAware
10:25PM 34.1150 -119.2030 310° West 397 457 21,400 1,800 Climbing FlightAware
10:26PM 34.1620 -119.2710 310° West 402 463 22,600 1,860 Climbing FlightAware
10:26PM 34.2100 -119.3390 310° West 406 467 23,900 1,680 Climbing FlightAware
10:27PM 34.2650 -119.4180 310° West 409 471 25,000 1,380 Climbing FlightAware
10:28PM 34.3150 -119.4900 310° West 423 487 25,900 1,320 Climbing FlightAware
10:28PM 34.3660 -119.5640 310° West 428 493 26,800 1,440 Climbing FlightAware
10:29PM 34.4220 -119.6440 310° West 426 490 28,000 1,680 Climbing FlightAware
10:30PM 34.4720 -119.7170 310° West 415 478 29,200 1,680 Climbing FlightAware
10:31PM 34.5270 -119.7900 312° West 422 486 30,300 1,440 Climbing FlightAware
10:31PM 34.5920 -119.8610 318° Northwest 416 479 31,300 1,320 Climbing FlightAware
10:32PM 34.6510 -119.9240 319° Northwest 415 478 32,200 1,380 Climbing FlightAware
10:33PM 34.7150 -119.9950 318° Northwest 417 480 33,300 1,320 Climbing FlightAware
10:33PM 34.7700 -120.0560 318° Northwest 413 475 34,100 1,080 Climbing FlightAware
10:34PM 34.8360 -120.1280 318° Northwest 413 475 34,900 1,020 Climbing FlightAware
10:35PM 34.8920 -120.1890 318° Northwest 413 475 35,600 780 Climbing FlightAware
10:35PM 34.9500 -120.2540 317° Northwest 412 474 36,000 300 Climbing FlightAware
10:36PM 35.0060 -120.3150 318° Northwest 413 475 36,000  Level FlightAware
10:37PM 35.1120 -120.4330 318° Northwest 415 478 36,000  Level FlightAware
10:38PM 35.1700 -120.4970 318° Northwest 413 475 36,000  Level FlightAware
10:39PM 35.2280 -120.5620 318° Northwest 408 470 36,000  Level FlightAware
10:39PM 35.2880 -120.6290 318° Northwest 406 467 36,000  Level FlightAware
10:40PM 35.3600 -120.6980 322° Northwest 411 473 36,000  Level FlightAware
10:41PM 35.4340 -120.7620 325° Northwest 410 472 36,000  Level FlightAware
10:42PM 35.5030 -120.8240 324° Northwest 409 471 36,000  Level FlightAware
10:42PM 35.5620 -120.8770 324° Northwest 406 467 36,000  Level FlightAware
10:43PM 35.6310 -120.9390 324° Northwest 405 466 36,000  Level FlightAware
10:44PM 35.6920 -120.9950 323° Northwest 402 463 36,000  Level FlightAware
10:45PM 35.7510 -121.0490 323° Northwest 402 463 36,000  Level FlightAware
10:45PM 35.8170 -121.1080 324° Northwest 401 461 36,000  Level FlightAware
10:46PM 35.8760 -121.1620 323° Northwest 399 459 36,000  Level FlightAware
10:47PM 35.9380 -121.2180 324° Northwest 398 458 36,000  Level FlightAware
10:47PM 36.0010 -121.2750 324° Northwest 398 458 36,000 -540 Level FlightAware
10:48PM 36.0650 -121.3340 323° Northwest 398 458 35,300 -1,140 Descending FlightAware
10:49PM 36.1300 -121.3940 323° Northwest 400 460 34,400 -1,560 Descending FlightAware
10:49PM 36.1880 -121.4470 324° Northwest 400 460 33,100 -1,980 Descending FlightAware
10:50PM 36.2530 -121.5070 323° Northwest 397 457 31,600 -2,160 Descending FlightAware
10:51PM 36.3160 -121.5650 323° Northwest 398 458 30,100 -2,220 Descending FlightAware
10:52PM 36.3740 -121.6180 324° Northwest 394 453 28,700 -2,220 Descending FlightAware
10:52PM 36.4380 -121.6780 323° Northwest 379 436 27,000 -2,280 Descending FlightAware
10:53PM 36.4930 -121.7290 323° Northwest 365 420 25,500 -2,220 Descending FlightAware
10:54PM 36.5450 -121.7770 323° Northwest 353 406 24,100 -2,220 Descending FlightAware
10:54PM 36.6040 -121.8320 323° Northwest 337 388 22,400 -2,220 Descending FlightAware
10:55PM 36.6530 -121.8780 323° Northwest 329 379 21,000 -2,160 Descending FlightAware
10:56PM 36.7070 -121.9280 323° Northwest 323 372 19,400 -2,100 Descending FlightAware
10:56PM 36.7540 -121.9650 328° Northwest 318 366 18,100 -2,220 Descending FlightAware
10:57PM 36.8250 -121.9860 347° North 320 368 16,300 -2,220 Descending FlightAware
10:58PM 36.8820 -122.0000 349° North 304 350 15,000 -1,980 Descending FlightAware
10:59PM 36.9360 -122.0150 347° North 305 351 13,700 -1,920 Descending FlightAware
10:59PM 37.0000 -122.0310 349° North 317 365 12,300 -1,200 Descending FlightAware
11:00PM 37.0540 -122.0450 348° North 282 325 12,000 -540 Descending FlightAware
11:01PM 37.1010 -122.0580 348° North 251 289 11,600 -660 Descending FlightAware
11:01PM 37.1400 -122.0690 347° North 226 260 11,200 -900 Descending FlightAware
11:02PM 37.1570 -122.0890 317° Northwest 212 244 10,700 -1,320 Descending FlightAware
11:02PM 37.1710 -122.1310 293° West 216 249 9,800 -1,380 Descending FlightAware
11:03PM 37.1840 -122.1700 293° West 217 250 9,100 -1,320 Descending FlightAware
11:03PM 37.1940 -122.2000 293° West 217 250 8,600 -1,200 Descending FlightAware
11:04PM 37.2150 -122.2250 317° Northwest 210 242 8,000 -1,320 Descending FlightAware
11:04PM 37.2380 -122.2460 324° Northwest 210 242 7,300 -1,440 Descending FlightAware
11:05PM 37.2590 -122.2630 327° Northwest 213 245 6,700 -1,200 Descending FlightAware
11:05PM 37.2830 -122.2830 326° Northwest 210 242 6,200 -780 Descending FlightAware
11:06PM 37.3030 -122.2990 328° Northwest 205 236 6,000 -240 Descending FlightAware
11:06PM 37.3270 -122.3190 326° Northwest 212 244 6,000  Level FlightAware
11:06PM 37.3440 -122.3270 339° North 218 251 6,000  Level FlightAware
11:07PM 37.3680 -122.3140 23° Northeast 238 274 6,000  Level FlightAware
11:07PM 37.3730 -122.3040 58° Northeast 246 283 6,000  Level FlightAware
11:07PM 37.3780 -122.2800 75° East 253 291 6,000  Level FlightAware
11:08PM 37.3830 -122.2380 81° East 246 283 6,000  Level FlightAware
11:08PM 37.3880 -122.2040 80° East 244 281 6,000  Level FlightAware
11:09PM 37.3940 -122.1620 80° East 246 283 6,000  Level FlightAware
11:09PM 37.3980 -122.1390 78° East 246 283 6,000  Level FlightAware
11:09PM 37.4080 -122.1070 69° East 233 268 6,000  Level FlightAware
11:10PM 37.4150 -122.0910 61° Northeast 217 250 6,000  Level FlightAware
11:10PM 37.4350 -122.0510 58° Northeast 196 226 6,000 -360 Level FlightAware
11:10PM 37.4460 -122.0440 27° Northeast 180 207 5,700 -1,200 Descending FlightAware
11:11PM 37.4680 -122.0530 342° North 166 191 5,100 -1,200 Descending FlightAware
11:11PM 37.4850 -122.0670 327° Northwest 172 198 4,600 -1,200 Descending FlightAware
11:12PM 37.4990 -122.0920 305° West 166 191 4,000 -660 Descending FlightAware
11:12PM 37.5080 -122.1130 298° West 165 190 4,000 -120 Level FlightAware
11:13PM 37.5190 -122.1390 298° West 163 188 3,900 -540 Descending FlightAware
11:13PM 37.5300 -122.1650 298° West 170 196 3,500 -900 Descending FlightAware
11:14PM 37.5390 -122.1850 300° West 165 190 3,100 -1,020 Descending FlightAware
11:14PM 37.5500 -122.2130 296° West 160 184 2,600 -540 Descending FlightAware
11:15PM 37.5620 -122.2420 298° West 160 184 2,500 -840 Descending FlightAware
11:15PM 37.5690 -122.2580 299° West 145 167 1,800 -1,380 Descending FlightAware
11:16PM 37.5833 -122.2833 299° West 129 148 1,400 -780 Descending Northern Cal TRACON
11:17PM 37.6000 -122.3167 302° West 122 140 700 -720 Descending Northern Cal TRACON